Terminal Aerodrome Forecast
Issued by NWS

Home | Current Version | Previous Version | Text Only | Print | Product List | Glossary On
Versions: 1 2 3 4 5 6 7 8 9 10 11 12 13 14 15 16 17 18 19 20 21 22 23 24 25 26 27 28 29
000
FTUS42 KTAE 161500 AAC
TAFABY
TAF AMD
KABY 161522Z 1615/1712 00000KT P6SM SCT014 BKN019
     FM161700 31007KT P6SM VCTS SCT030CB BKN100
      TEMPO 1620/1624 3SM TSRA OVC025CB
     FM170300 34003KT P6SM SCT100 BKN250
     FM170700 02003KT P6SM SCT250=

USA.gov is the U.S. government's official web portal to all federal, state and local government web resources and services.